createdAt,value
2023-12-11T00:02:26.558Z,8.30
2023-12-11T00:04:54.085Z,7.10
2023-12-11T00:07:21.449Z,7.70
2023-12-11T00:09:48.818Z,7.70
2023-12-11T00:12:17.333Z,7.70
2023-12-11T00:14:44.654Z,7.50
2023-12-11T00:17:11.996Z,7.40
2023-12-11T00:19:39.461Z,7.80
2023-12-11T00:22:06.893Z,8.00
2023-12-11T00:24:34.300Z,7.50
2023-12-11T00:27:01.766Z,7.80
2023-12-11T00:29:29.064Z,8.10
2023-12-11T00:31:56.522Z,7.70
2023-12-11T00:34:24.090Z,7.80
2023-12-11T00:36:52.068Z,7.10
2023-12-11T00:39:19.757Z,7.60
2023-12-11T00:41:47.131Z,7.10
2023-12-11T00:44:14.493Z,7.40
2023-12-11T00:46:41.812Z,7.40
2023-12-11T00:49:10.132Z,7.10
2023-12-11T00:51:37.657Z,7.30
2023-12-11T00:54:05.183Z,7.30
2023-12-11T00:56:32.572Z,7.00
2023-12-11T00:58:59.901Z,7.30
2023-12-11T01:01:27.318Z,7.60
2023-12-11T01:03:54.925Z,7.10
2023-12-11T01:06:22.463Z,7.30
2023-12-11T01:08:49.840Z,7.40
2023-12-11T01:11:17.200Z,7.30
2023-12-11T01:13:44.528Z,7.30
2023-12-11T01:16:11.982Z,7.00
2023-12-11T01:18:39.909Z,7.40
2023-12-11T01:21:07.569Z,7.60
2023-12-11T01:23:35.012Z,7.20
2023-12-11T01:26:02.465Z,7.20
2023-12-11T01:28:30.202Z,7.20
2023-12-11T01:30:57.582Z,7.10
2023-12-11T01:33:25.212Z,7.00
2023-12-11T01:35:53.036Z,7.20
2023-12-11T01:38:20.588Z,7.10
2023-12-11T01:40:47.975Z,6.90
2023-12-11T01:43:18.467Z,7.00
2023-12-11T01:45:47.939Z,6.60
2023-12-11T01:48:15.543Z,6.50
2023-12-11T01:50:43.055Z,7.10
2023-12-11T01:53:10.543Z,6.80
2023-12-11T01:55:38.747Z,6.80
2023-12-11T01:58:06.418Z,6.90
2023-12-11T02:00:34.015Z,6.80
2023-12-11T02:03:01.581Z,6.40
2023-12-11T02:05:28.980Z,6.30
2023-12-11T02:07:56.624Z,6.20
2023-12-11T02:10:23.977Z,6.10
2023-12-11T02:12:51.369Z,6.30
2023-12-11T02:15:40.855Z,6.40
2023-12-11T02:18:10.010Z,6.60
2023-12-11T02:20:38.740Z,6.20
2023-12-11T02:23:10.038Z,6.30
2023-12-11T02:25:37.450Z,6.10
2023-12-11T02:28:05.439Z,6.00
2023-12-11T02:30:38.804Z,6.20
2023-12-11T02:33:06.302Z,6.40
2023-12-11T02:35:33.971Z,6.10
2023-12-11T02:38:01.318Z,5.60
2023-12-11T02:40:28.857Z,6.20
2023-12-11T02:42:56.195Z,5.80
2023-12-11T02:45:23.572Z,5.60
2023-12-11T02:49:09.655Z,5.50
2023-12-11T02:51:37.206Z,5.00
2023-12-11T02:54:04.676Z,5.00
2023-12-11T02:56:32.031Z,4.80
2023-12-11T02:58:59.723Z,5.00
2023-12-11T03:01:27.113Z,5.10
2023-12-11T03:03:54.614Z,5.00
2023-12-11T03:06:22.161Z,4.80
2023-12-11T03:08:49.690Z,4.60
2023-12-11T03:11:17.068Z,4.80
2023-12-11T03:13:44.414Z,4.40
2023-12-11T03:16:14.698Z,4.60
2023-12-11T03:18:42.839Z,3.80
2023-12-11T03:21:10.440Z,3.90
2023-12-11T03:23:39.617Z,3.70
2023-12-11T03:26:06.955Z,3.70
2023-12-11T03:28:34.285Z,3.70
2023-12-11T03:31:01.891Z,3.40
2023-12-11T03:33:29.278Z,3.50
2023-12-11T03:35:56.577Z,3.70
2023-12-11T03:38:23.980Z,3.30
2023-12-11T03:40:51.720Z,3.30
2023-12-11T03:43:19.240Z,3.50
2023-12-11T03:45:47.877Z,3.30
2023-12-11T03:48:15.529Z,3.40
2023-12-11T03:50:42.949Z,3.40
2023-12-11T03:53:11.531Z,3.60
2023-12-11T03:55:39.429Z,3.50
2023-12-11T03:58:06.795Z,3.10
2023-12-11T04:00:34.852Z,3.20
2023-12-11T04:03:02.289Z,3.30
2023-12-11T04:05:29.662Z,3.30
2023-12-11T04:07:57.023Z,3.60
2023-12-11T04:10:24.349Z,3.30
2023-12-11T04:12:51.680Z,3.60
2023-12-11T04:15:19.098Z,3.50
2023-12-11T04:17:46.499Z,3.50
2023-12-11T04:20:13.940Z,3.70
2023-12-11T04:22:41.356Z,3.80
2023-12-11T04:25:08.847Z,4.10
2023-12-11T04:27:36.455Z,4.00
2023-12-11T04:30:05.749Z,4.10
2023-12-11T04:32:33.127Z,4.60
2023-12-11T04:35:00.692Z,4.60
2023-12-11T04:37:28.239Z,4.20
2023-12-11T04:39:55.938Z,4.20
2023-12-11T04:42:23.353Z,4.30
2023-12-11T04:44:50.712Z,4.30
2023-12-11T04:47:18.161Z,4.50
2023-12-11T04:49:45.664Z,3.90
2023-12-11T04:52:13.314Z,3.90
2023-12-11T04:54:42.364Z,3.90
2023-12-11T04:57:09.916Z,4.10
2023-12-11T04:59:38.320Z,4.00
2023-12-11T05:02:06.619Z,4.00
2023-12-11T05:04:34.017Z,4.20
2023-12-11T05:07:01.502Z,4.40
2023-12-11T05:09:28.854Z,4.20
2023-12-11T05:11:56.195Z,4.20
2023-12-11T05:14:23.677Z,4.30
2023-12-11T05:16:50.995Z,4.20
2023-12-11T05:19:18.489Z,4.30
2023-12-11T05:21:46.062Z,4.50
2023-12-11T05:24:13.514Z,4.30
2023-12-11T05:26:40.911Z,4.80
2023-12-11T05:29:08.256Z,4.40
2023-12-11T05:31:35.672Z,4.40
2023-12-11T05:34:03.650Z,4.50
2023-12-11T05:36:31.200Z,4.60
2023-12-11T05:38:58.571Z,4.60
2023-12-11T05:41:25.960Z,4.40
2023-12-11T05:43:53.368Z,4.60
2023-12-11T05:46:20.720Z,4.30
2023-12-11T05:48:48.318Z,4.10
2023-12-11T05:51:15.879Z,4.30
2023-12-11T05:53:43.245Z,4.30
2023-12-11T05:56:11.262Z,3.90
2023-12-11T05:58:39.148Z,3.60
2023-12-11T06:01:06.844Z,4.30
2023-12-11T06:03:34.286Z,3.90
2023-12-11T06:06:01.923Z,4.20
2023-12-11T06:08:29.377Z,4.10
2023-12-11T06:10:56.771Z,4.60
2023-12-11T06:13:24.144Z,4.50
2023-12-11T06:15:51.569Z,4.70
2023-12-11T06:18:20.213Z,4.60
2023-12-11T06:20:47.922Z,3.70
2023-12-11T06:23:15.279Z,4.10
2023-12-11T06:25:42.635Z,4.10
2023-12-11T06:28:10.121Z,3.90
2023-12-11T06:30:37.553Z,3.70
2023-12-11T06:33:04.917Z,3.40
2023-12-11T06:35:32.374Z,3.00
2023-12-11T06:37:59.708Z,3.10
2023-12-11T06:40:27.103Z,3.20
2023-12-11T06:42:54.548Z,3.10
2023-12-11T06:45:21.934Z,3.20
2023-12-11T06:47:49.245Z,3.10
2023-12-11T06:50:20.997Z,3.00
2023-12-11T06:52:48.628Z,3.10
2023-12-11T06:55:16.132Z,2.80
2023-12-11T06:57:43.522Z,3.30
2023-12-11T07:00:12.055Z,3.60
2023-12-11T07:02:39.984Z,3.30
2023-12-11T07:05:08.350Z,3.10
2023-12-11T07:07:36.387Z,3.30
2023-12-11T07:10:06.724Z,3.30
2023-12-11T07:12:34.459Z,3.50
2023-12-11T07:15:02.160Z,3.60
2023-12-11T07:17:30.700Z,3.10
2023-12-11T07:19:59.033Z,3.30
2023-12-11T07:22:26.555Z,3.40
2023-12-11T07:24:53.888Z,3.60
2023-12-11T07:27:21.402Z,3.50
2023-12-11T07:29:48.745Z,3.40
2023-12-11T07:32:16.189Z,3.80
2023-12-11T07:34:44.295Z,3.20
2023-12-11T07:37:11.850Z,3.40
2023-12-11T07:39:39.548Z,3.20
2023-12-11T07:42:06.921Z,3.60
2023-12-11T07:44:34.278Z,3.20
2023-12-11T07:47:01.644Z,3.60
2023-12-11T07:49:29.166Z,3.30
2023-12-11T07:51:56.878Z,3.50
2023-12-11T07:54:24.419Z,3.40
2023-12-11T07:56:51.921Z,3.20
2023-12-11T07:59:19.274Z,3.10
2023-12-11T08:01:47.557Z,3.40
2023-12-11T08:04:15.392Z,3.10
2023-12-11T08:06:43.275Z,3.10
2023-12-11T08:09:10.923Z,3.30
2023-12-11T08:11:38.361Z,2.90
2023-12-11T08:14:06.849Z,3.00
2023-12-11T08:16:34.206Z,3.40
2023-12-11T08:19:02.359Z,3.00
2023-12-11T08:21:29.902Z,3.10
2023-12-11T08:23:57.238Z,2.90
2023-12-11T08:26:25.459Z,3.10
2023-12-11T08:28:52.913Z,3.20
2023-12-11T08:31:20.533Z,3.50
2023-12-11T08:33:48.104Z,3.10
2023-12-11T08:36:15.653Z,3.10
2023-12-11T08:38:43.074Z,3.10
2023-12-11T08:41:10.466Z,3.10
2023-12-11T08:43:37.937Z,3.20
2023-12-11T08:46:05.306Z,3.40
2023-12-11T08:48:32.894Z,3.40
2023-12-11T08:51:00.612Z,3.60
2023-12-11T08:53:28.210Z,3.50
2023-12-11T08:55:55.574Z,3.00
2023-12-11T08:58:23.039Z,3.30
2023-12-11T09:00:50.644Z,3.80
2023-12-11T09:03:18.365Z,3.50
2023-12-11T09:05:45.813Z,3.50
2023-12-11T09:08:13.295Z,3.40
2023-12-11T09:10:42.201Z,3.80
2023-12-11T09:13:09.688Z,3.70
2023-12-11T09:15:37.854Z,3.70
2023-12-11T09:18:06.408Z,3.20
2023-12-11T09:20:34.036Z,3.50
2023-12-11T09:23:01.473Z,3.80
2023-12-11T09:25:29.491Z,5.90
2023-12-11T09:27:57.026Z,3.50
2023-12-11T09:30:24.681Z,3.70
2023-12-11T09:32:52.449Z,3.80
2023-12-11T09:35:20.441Z,3.90
2023-12-11T09:37:48.207Z,3.80
2023-12-11T09:40:15.758Z,4.00
2023-12-11T09:42:44.401Z,3.80
2023-12-11T09:45:12.712Z,4.50
2023-12-11T09:47:41.955Z,4.70
2023-12-11T09:50:09.856Z,4.30
2023-12-11T09:52:42.022Z,4.50
2023-12-11T09:55:10.308Z,4.60
2023-12-11T09:57:47.194Z,4.80
2023-12-11T10:00:17.357Z,5.00
2023-12-11T10:02:46.147Z,5.20
2023-12-11T10:05:13.850Z,5.20
2023-12-11T10:07:42.303Z,4.60
2023-12-11T10:10:23.078Z,4.70
2023-12-11T10:12:50.827Z,4.60
2023-12-11T10:15:26.309Z,4.20
2023-12-11T10:18:04.876Z,4.00
2023-12-11T10:20:33.913Z,3.50
2023-12-11T10:23:24.613Z,3.70
2023-12-11T10:26:04.900Z,3.60
2023-12-11T10:28:32.929Z,3.30
2023-12-11T10:31:03.615Z,3.50
2023-12-11T10:33:34.789Z,3.40
2023-12-11T10:36:13.599Z,3.90
2023-12-11T10:38:41.487Z,4.20
2023-12-11T10:41:09.919Z,4.20
2023-12-11T10:43:56.183Z,4.20
2023-12-11T10:46:31.299Z,4.60
2023-12-11T10:49:00.587Z,4.80
2023-12-11T10:51:28.093Z,5.20
2023-12-11T10:53:56.566Z,5.20
2023-12-11T10:56:25.135Z,5.50
2023-12-11T10:58:52.686Z,5.40
2023-12-11T11:01:20.188Z,5.50
2023-12-11T11:03:48.010Z,5.80
2023-12-11T11:06:15.454Z,6.00
2023-12-11T11:08:56.436Z,5.80
2023-12-11T11:11:28.563Z,5.80
2023-12-11T11:14:16.193Z,5.90
2023-12-11T11:16:53.570Z,5.60
2023-12-11T11:19:21.448Z,5.50
2023-12-11T11:22:01.623Z,5.50
2023-12-11T11:24:29.861Z,5.40
2023-12-11T11:27:41.650Z,5.30
2023-12-11T11:30:47.057Z,4.50
2023-12-11T11:33:14.868Z,4.60
2023-12-11T11:35:49.013Z,4.20
2023-12-11T11:38:18.122Z,5.10
2023-12-11T11:40:45.790Z,5.10
2023-12-11T11:43:14.283Z,4.40
2023-12-11T11:45:42.629Z,4.70
2023-12-11T11:48:10.365Z,4.70
2023-12-11T11:50:50.814Z,4.60
2023-12-11T11:53:18.522Z,4.30
2023-12-11T11:55:46.104Z,4.20
2023-12-11T11:58:14.593Z,4.10
2023-12-11T12:00:42.432Z,4.20
2023-12-11T12:03:10.095Z,4.20
2023-12-11T12:05:38.225Z,4.50
2023-12-11T12:08:11.981Z,4.70
2023-12-11T12:10:39.330Z,5.00
2023-12-11T12:13:06.941Z,5.00
2023-12-11T12:15:43.515Z,5.00
2023-12-11T12:18:11.237Z,5.20
2023-12-11T12:20:38.694Z,5.40
2023-12-11T12:23:07.166Z,5.20
2023-12-11T12:25:35.445Z,5.50
2023-12-11T12:28:10.046Z,5.60
2023-12-11T12:30:37.725Z,5.30
2023-12-11T12:33:07.134Z,5.50
2023-12-11T12:35:34.615Z,5.50
2023-12-11T12:38:02.681Z,5.40
2023-12-11T12:40:37.002Z,5.00
2023-12-11T12:43:14.518Z,5.20
2023-12-11T12:45:43.420Z,4.80
2023-12-11T12:48:12.141Z,5.10
2023-12-11T12:50:39.567Z,5.40
2023-12-11T12:53:07.701Z,4.90
2023-12-11T12:55:35.620Z,6.00
2023-12-11T12:58:03.742Z,5.50
2023-12-11T13:00:35.440Z,5.80
2023-12-11T13:03:04.487Z,5.40
2023-12-11T13:05:46.084Z,5.80
2023-12-11T13:08:15.980Z,5.60
2023-12-11T13:10:55.399Z,5.90
2023-12-11T13:13:29.008Z,5.80
2023-12-11T13:15:57.598Z,5.60
2023-12-11T13:18:32.152Z,6.40
2023-12-11T13:20:59.742Z,5.70
2023-12-11T13:23:27.164Z,5.50
2023-12-11T13:25:54.482Z,5.50
2023-12-11T13:28:21.833Z,5.80
2023-12-11T13:30:49.889Z,5.90
2023-12-11T13:33:17.457Z,6.20
2023-12-11T13:35:45.067Z,6.40
2023-12-11T13:38:13.516Z,7.30
2023-12-11T13:40:40.837Z,16.80
2023-12-11T13:43:08.220Z,14.00
2023-12-11T13:45:35.664Z,9.90
2023-12-11T13:48:03.256Z,8.00
2023-12-11T13:50:31.562Z,7.40
2023-12-11T13:52:58.943Z,9.10
2023-12-11T13:55:26.304Z,8.10
2023-12-11T13:57:53.698Z,8.30
2023-12-11T14:00:21.189Z,7.80
2023-12-11T14:03:00.815Z,8.40
2023-12-11T14:05:34.148Z,8.50
2023-12-11T14:08:03.524Z,8.10
2023-12-11T14:10:32.001Z,8.70
2023-12-11T14:12:59.419Z,9.00
2023-12-11T14:15:26.973Z,9.60
2023-12-11T14:17:54.719Z,9.40
2023-12-11T14:20:22.446Z,9.00
2023-12-11T14:22:49.904Z,9.40
2023-12-11T14:25:17.387Z,9.20
2023-12-11T14:34:43.314Z,10.10
2023-12-11T14:37:11.897Z,9.90
2023-12-11T14:39:40.025Z,10.00
2023-12-11T14:42:07.761Z,10.00
2023-12-11T14:44:38.574Z,9.70
2023-12-11T14:47:06.727Z,10.60
2023-12-11T14:49:34.621Z,11.40
2023-12-11T14:52:02.186Z,11.60
2023-12-11T14:54:29.618Z,11.10
2023-12-11T14:56:56.993Z,10.80
2023-12-11T14:59:24.736Z,11.70
2023-12-11T15:01:52.355Z,11.60
2023-12-11T15:04:19.951Z,12.00
2023-12-11T15:07:32.065Z,12.20
2023-12-11T15:09:59.732Z,12.80
2023-12-11T15:12:27.162Z,12.20
2023-12-11T15:14:55.038Z,12.30
2023-12-11T15:17:22.459Z,12.30
2023-12-11T15:19:50.349Z,12.80
2023-12-11T15:22:17.763Z,13.80
2023-12-11T15:24:46.470Z,13.40
2023-12-11T15:27:13.975Z,14.00
2023-12-11T15:29:41.634Z,13.80
2023-12-11T15:32:09.014Z,12.90
2023-12-11T15:34:38.334Z,13.20
2023-12-11T15:37:06.360Z,13.00
2023-12-11T15:39:33.802Z,13.30
2023-12-11T15:42:01.194Z,12.70
2023-12-11T15:44:28.524Z,12.50
2023-12-11T15:46:55.818Z,11.50
2023-12-11T15:49:23.464Z,10.70
2023-12-11T15:51:54.326Z,10.50
2023-12-11T15:54:21.845Z,10.20
2023-12-11T15:56:49.394Z,10.30
2023-12-11T15:59:17.340Z,10.10
2023-12-11T16:01:44.925Z,9.60
2023-12-11T16:04:12.415Z,9.30
2023-12-11T16:06:40.655Z,9.40
2023-12-11T16:09:10.486Z,8.60
2023-12-11T16:11:39.804Z,8.50
2023-12-11T16:14:07.147Z,8.70
2023-12-11T16:16:34.555Z,9.20
2023-12-11T16:19:02.230Z,9.40
2023-12-11T16:21:29.875Z,8.30
2023-12-11T16:23:57.216Z,9.30
2023-12-11T16:26:24.746Z,8.70
2023-12-11T16:28:52.024Z,9.00
2023-12-11T16:31:25.211Z,8.30
2023-12-11T16:33:52.890Z,7.90
2023-12-11T16:36:20.419Z,9.10
2023-12-11T16:38:47.942Z,8.30
2023-12-11T16:41:26.177Z,7.30
2023-12-11T16:43:53.939Z,8.50
2023-12-11T16:46:24.113Z,7.80
2023-12-11T16:48:51.775Z,7.90
2023-12-11T16:51:19.411Z,9.20
2023-12-11T16:53:47.506Z,9.40
2023-12-11T16:56:16.209Z,8.30
2023-12-11T16:58:43.843Z,8.20
2023-12-11T17:01:14.864Z,8.40
2023-12-11T17:03:42.660Z,8.60
2023-12-11T17:06:17.896Z,8.30
2023-12-11T17:08:45.721Z,8.40
2023-12-11T17:11:13.137Z,7.70
2023-12-11T17:13:41.462Z,8.00
2023-12-11T17:16:09.027Z,11.00
2023-12-11T17:18:36.700Z,10.10
2023-12-11T17:21:06.798Z,8.90
2023-12-11T17:23:34.899Z,8.50
2023-12-11T17:26:02.239Z,8.70
2023-12-11T17:28:29.625Z,9.00
2023-12-11T17:30:57.080Z,8.50
2023-12-11T17:33:24.663Z,8.70
2023-12-11T17:35:51.980Z,8.80
2023-12-11T17:38:19.378Z,8.90
2023-12-11T17:40:46.760Z,9.00
2023-12-11T17:43:14.136Z,8.90
2023-12-11T17:45:42.572Z,9.40
2023-12-11T17:48:10.140Z,8.70
2023-12-11T17:50:38.006Z,8.80
2023-12-11T17:53:05.395Z,8.80
2023-12-11T17:55:32.876Z,9.40
2023-12-11T17:58:00.284Z,9.40
2023-12-11T18:00:27.849Z,8.80
2023-12-11T18:02:55.272Z,9.20
2023-12-11T18:05:22.599Z,10.00
2023-12-11T18:07:50.190Z,9.30
2023-12-11T18:10:17.934Z,9.60
2023-12-11T18:12:45.528Z,9.70
2023-12-11T18:15:12.956Z,9.80
2023-12-11T18:17:40.627Z,9.30
2023-12-11T18:20:09.668Z,10.20
2023-12-11T18:22:37.264Z,9.10
2023-12-11T18:25:05.374Z,9.20
2023-12-11T18:27:36.016Z,9.00
2023-12-11T18:30:07.116Z,9.40
2023-12-11T18:32:35.670Z,9.60
2023-12-11T18:35:04.891Z,10.50
2023-12-11T18:37:32.799Z,11.50
2023-12-11T18:40:00.933Z,11.30
2023-12-11T18:42:28.464Z,11.10
2023-12-11T18:44:55.818Z,10.70
2023-12-11T18:47:23.182Z,11.00
2023-12-11T18:49:51.291Z,8.70
2023-12-11T18:52:18.824Z,9.40
2023-12-11T18:54:46.365Z,10.10
2023-12-11T18:57:15.776Z,10.70
2023-12-11T18:59:44.470Z,9.80
2023-12-11T19:02:13.478Z,9.30
2023-12-11T19:04:41.297Z,10.20
2023-12-11T19:07:08.739Z,9.90
2023-12-11T19:09:36.083Z,9.80
2023-12-11T19:12:04.108Z,9.20
2023-12-11T19:14:31.523Z,9.30
2023-12-11T19:16:59.020Z,9.40
2023-12-11T19:19:26.566Z,7.60
2023-12-11T19:21:54.190Z,8.20
2023-12-11T19:24:21.658Z,8.50
2023-12-11T19:26:49.006Z,9.00
2023-12-11T19:29:17.857Z,14.40
2023-12-11T19:31:45.353Z,8.50
2023-12-11T19:34:12.907Z,8.40
2023-12-11T19:36:42.762Z,9.70
2023-12-11T19:39:10.566Z,9.50
2023-12-11T19:41:37.948Z,10.20
2023-12-11T19:44:05.278Z,9.40
2023-12-11T19:46:32.630Z,8.90
2023-12-11T19:49:00.300Z,9.40
2023-12-11T19:51:30.438Z,10.40
2023-12-11T19:53:57.992Z,10.10
2023-12-11T19:56:25.815Z,9.40
2023-12-11T19:58:53.168Z,9.90
2023-12-11T20:01:28.118Z,9.90
2023-12-11T20:03:55.973Z,9.00
2023-12-11T20:06:25.029Z,9.00
2023-12-11T20:08:52.873Z,8.60
2023-12-11T20:11:20.701Z,8.80
2023-12-11T20:13:48.394Z,8.30
2023-12-11T20:16:16.343Z,8.50
2023-12-11T20:18:44.628Z,7.90
2023-12-11T20:21:12.077Z,8.40
2023-12-11T20:23:39.581Z,8.30
2023-12-11T20:26:07.098Z,8.40
2023-12-11T20:28:34.433Z,8.60
2023-12-11T20:31:01.838Z,9.00
2023-12-11T20:33:29.245Z,8.50
2023-12-11T20:35:56.704Z,8.40
2023-12-11T20:38:24.033Z,8.20
2023-12-11T20:40:51.359Z,9.00
2023-12-11T20:43:18.661Z,9.60
2023-12-11T20:45:46.048Z,9.90
2023-12-11T20:48:13.469Z,8.70
2023-12-11T20:50:40.888Z,10.20
2023-12-11T20:53:08.183Z,8.70
2023-12-11T20:55:35.644Z,10.00
2023-12-11T20:58:03.108Z,9.90
2023-12-11T21:00:30.536Z,9.60
2023-12-11T21:02:59.844Z,9.90
2023-12-11T21:05:28.049Z,10.60
2023-12-11T21:07:55.553Z,9.80
2023-12-11T21:10:22.962Z,10.40
2023-12-11T21:12:50.379Z,10.70
2023-12-11T21:15:18.695Z,10.10
2023-12-11T21:17:46.205Z,10.60
2023-12-11T21:20:13.740Z,10.30
2023-12-11T21:22:41.077Z,9.70
2023-12-11T21:25:08.633Z,9.60
2023-12-11T21:27:36.130Z,10.10
2023-12-11T21:30:08.176Z,9.00
2023-12-11T21:32:35.497Z,8.60
2023-12-11T21:35:02.801Z,9.50
2023-12-11T21:37:30.420Z,9.40
2023-12-11T21:39:57.977Z,8.30
2023-12-11T21:42:25.393Z,8.70
2023-12-11T21:44:52.688Z,8.60
2023-12-11T21:47:20.009Z,9.10
2023-12-11T21:49:47.807Z,9.10
2023-12-11T21:52:15.664Z,9.10
2023-12-11T21:54:43.074Z,9.40
2023-12-11T21:57:10.395Z,8.80
2023-12-11T21:59:42.899Z,9.80
2023-12-11T22:02:15.338Z,9.70
2023-12-11T22:04:42.763Z,9.40
2023-12-11T22:07:10.097Z,10.30
2023-12-11T22:09:37.455Z,10.00
2023-12-11T22:12:05.187Z,9.80
2023-12-11T22:14:32.567Z,10.10
2023-12-11T22:16:59.870Z,10.30
2023-12-11T22:19:27.390Z,10.20
2023-12-11T22:21:54.830Z,9.50
2023-12-11T22:24:22.205Z,10.20
2023-12-11T22:26:50.324Z,10.00
2023-12-11T22:29:17.773Z,9.70
2023-12-11T22:31:45.876Z,9.70
2023-12-11T22:34:13.351Z,9.70
2023-12-11T22:36:41.277Z,8.60
2023-12-11T22:39:09.459Z,9.10
2023-12-11T22:41:36.963Z,8.80
2023-12-11T22:44:04.446Z,9.30
2023-12-11T22:46:31.846Z,9.20
2023-12-11T22:48:59.520Z,8.90
2023-12-11T22:51:27.044Z,9.30
2023-12-11T22:53:54.476Z,8.80
2023-12-11T22:56:21.879Z,8.80
2023-12-11T22:58:49.387Z,9.00
2023-12-11T23:01:16.963Z,8.80
2023-12-11T23:03:45.460Z,9.00
2023-12-11T23:06:13.883Z,8.60
2023-12-11T23:08:41.458Z,9.20
2023-12-11T23:11:08.853Z,7.70
2023-12-11T23:13:36.197Z,8.30
2023-12-11T23:16:03.951Z,8.10
2023-12-11T23:18:31.519Z,8.50
2023-12-11T23:20:58.952Z,8.20
2023-12-11T23:23:26.440Z,8.20
2023-12-11T23:25:58.839Z,8.20
2023-12-11T23:28:31.886Z,7.30
2023-12-11T23:30:59.369Z,8.00
2023-12-11T23:33:26.773Z,7.60
2023-12-11T23:35:54.180Z,7.90
2023-12-11T23:38:21.507Z,7.70
2023-12-11T23:40:49.747Z,8.20
2023-12-11T23:43:17.076Z,8.50
2023-12-11T23:45:44.586Z,8.00
2023-12-11T23:48:11.942Z,8.00
2023-12-11T23:50:39.892Z,8.30
2023-12-11T23:53:07.215Z,7.90
2023-12-11T23:55:34.584Z,7.90
2023-12-11T23:58:02.027Z,8.60
